Terminal Aerodrome Forecast
Issued by NWS Billings, MT

Home | Current Version | Previous Version | Text Only | Print | Product List | Glossary On
Versions: 1 2 3 4 5 6 7 8 9 10 11 12 13 14 15 16 17 18 19 20 21 22 23 24 25 26 27
000
FTUS45 KBYZ 231447 AAA
TAFSHR
TAF AMD
KSHR 231447Z 2315/2412 VRB05KT P6SM VCSH BKN009 OVC020
      TEMPO 2315/2318 4SM -SHRA OVC005
     FM231800 VRB05KT P6SM -SHRA FEW012 SCT035 BKN100
     FM232100 VRB05KT P6SM VCTS FEW030 SCT050CB BKN150
     FM240000 VRB05KT 5SM TSRA BKN030CB OVC080
     FM240500 VRB05KT P6SM VCSH BKN008 OVC020=

USA.gov is the U.S. government's official web portal to all federal, state and local government web resources and services.